createdAt,value
2023-10-08T00:00:54.976Z,12.30
2023-10-08T00:03:21.723Z,12.33
2023-10-08T00:05:50.808Z,12.30
2023-10-08T00:08:18.317Z,12.13
2023-10-08T00:10:46.111Z,12.22
2023-10-08T00:13:13.954Z,12.28
2023-10-08T00:15:59.177Z,12.20
2023-10-08T00:18:25.603Z,12.21
2023-10-08T00:21:17.510Z,12.20
2023-10-08T00:23:53.429Z,12.17
2023-10-08T00:26:28.264Z,12.25
2023-10-08T00:28:57.097Z,12.25
2023-10-08T00:31:38.719Z,12.26
2023-10-08T00:34:06.704Z,12.02
2023-10-08T00:36:35.122Z,12.25
2023-10-08T00:39:09.023Z,12.25
2023-10-08T00:41:36.457Z,12.19
2023-10-08T00:44:06.908Z,12.14
2023-10-08T00:46:37.138Z,12.04
2023-10-08T00:49:22.961Z,12.23
2023-10-08T00:52:09.444Z,12.19
2023-10-08T00:54:55.087Z,12.02
2023-10-08T00:57:31.141Z,12.14
2023-10-08T00:59:59.888Z,12.16
2023-10-08T01:02:47.646Z,12.19
2023-10-08T01:05:16.927Z,12.03
2023-10-08T01:07:46.737Z,12.15
2023-10-08T01:10:14.896Z,12.20
2023-10-08T01:13:00.541Z,12.20
2023-10-08T01:15:29.813Z,12.08
2023-10-08T01:18:05.185Z,12.04
2023-10-08T01:20:35.061Z,11.99
2023-10-08T01:23:11.416Z,12.15
2023-10-08T01:25:39.357Z,12.13
2023-10-08T01:28:15.183Z,12.02
2023-10-08T01:30:47.774Z,12.16
2023-10-08T01:33:17.002Z,12.12
2023-10-08T01:35:43.925Z,12.13
2023-10-08T01:38:14.507Z,12.10
2023-10-08T01:40:42.500Z,12.13
2023-10-08T01:43:10.277Z,12.02
2023-10-08T01:45:44.390Z,12.18
2023-10-08T01:48:11.793Z,12.18
2023-10-08T01:50:39.059Z,12.21
2023-10-08T01:53:08.155Z,12.20
2023-10-08T01:55:46.310Z,12.11
2023-10-08T01:58:14.399Z,12.16
2023-10-08T02:00:47.047Z,12.26
2023-10-08T02:03:24.128Z,12.29
2023-10-08T02:05:54.549Z,12.30
2023-10-08T02:08:22.029Z,12.26
2023-10-08T02:10:48.572Z,12.26
2023-10-08T02:13:17.147Z,12.26
2023-10-08T02:15:53.812Z,12.22
2023-10-08T02:18:21.395Z,12.25
2023-10-08T02:20:49.235Z,12.28
2023-10-08T02:23:15.933Z,12.21
2023-10-08T02:25:42.511Z,12.23
2023-10-08T02:28:16.720Z,12.23
2023-10-08T02:30:44.002Z,12.20
2023-10-08T02:33:15.387Z,12.19
2023-10-08T02:35:43.988Z,12.18
2023-10-08T02:38:14.463Z,12.15
2023-10-08T02:40:48.918Z,12.10
2023-10-08T02:43:16.649Z,11.94
2023-10-08T02:45:48.401Z,12.04
2023-10-08T02:48:16.183Z,12.06
2023-10-08T02:50:45.171Z,12.10
2023-10-08T02:53:12.302Z,12.11
2023-10-08T02:55:48.063Z,12.12
2023-10-08T02:58:16.094Z,12.03
2023-10-08T03:00:43.936Z,12.05
2023-10-08T03:03:16.502Z,12.06
2023-10-08T03:05:48.247Z,12.02
2023-10-08T03:08:22.281Z,11.99
2023-10-08T03:10:50.281Z,11.99
2023-10-08T03:13:18.169Z,12.02
2023-10-08T03:15:58.987Z,11.93
2023-10-08T03:18:25.871Z,12.04
2023-10-08T03:20:52.429Z,11.98
2023-10-08T03:23:35.670Z,11.99
2023-10-08T03:26:22.945Z,11.91
2023-10-08T03:28:58.493Z,12.05
2023-10-08T03:31:45.816Z,11.99
2023-10-08T03:34:16.460Z,11.95
2023-10-08T03:36:46.358Z,11.81
2023-10-08T03:39:16.879Z,11.96
2023-10-08T03:41:52.745Z,11.78
2023-10-08T03:44:21.581Z,11.90
2023-10-08T03:46:49.355Z,11.96
2023-10-08T03:49:26.030Z,11.92
2023-10-08T03:51:53.676Z,11.95
2023-10-08T03:54:31.003Z,11.92
2023-10-08T03:56:58.573Z,11.82
2023-10-08T03:59:35.467Z,11.81
2023-10-08T04:02:16.500Z,11.77
2023-10-08T04:04:58.568Z,11.80
2023-10-08T04:08:01.861Z,11.65
2023-10-08T04:10:44.241Z,11.80
2023-10-08T04:13:11.081Z,11.77
2023-10-08T04:15:42.632Z,11.71
2023-10-08T04:18:10.294Z,11.84
2023-10-08T04:20:40.068Z,11.83
2023-10-08T04:23:19.415Z,11.65
2023-10-08T04:25:46.046Z,11.81
2023-10-08T04:28:15.431Z,11.67
2023-10-08T04:30:42.761Z,11.77
2023-10-08T04:33:14.180Z,11.78
2023-10-08T04:36:02.597Z,11.74
2023-10-08T04:38:30.038Z,11.69
2023-10-08T04:41:02.639Z,11.57
2023-10-08T04:43:29.287Z,11.72
2023-10-08T04:45:59.217Z,11.68
2023-10-08T04:48:30.857Z,11.72
2023-10-08T04:51:00.275Z,11.70
2023-10-08T04:53:39.085Z,11.68
2023-10-08T04:56:08.118Z,11.66
2023-10-08T04:58:37.731Z,11.65
2023-10-08T05:01:22.238Z,11.64
2023-10-08T05:03:59.880Z,11.63
2023-10-08T05:06:36.545Z,11.51
2023-10-08T05:09:21.507Z,11.52
2023-10-08T05:11:52.586Z,11.48
2023-10-08T05:14:29.809Z,11.47
2023-10-08T05:17:12.788Z,11.41
2023-10-08T05:19:41.627Z,11.45
2023-10-08T05:22:28.287Z,11.47
2023-10-08T05:25:11.180Z,11.47
2023-10-08T05:27:57.816Z,11.47
2023-10-08T05:30:38.416Z,11.27
2023-10-08T05:33:18.704Z,11.40
2023-10-08T05:35:47.209Z,11.32
2023-10-08T05:38:32.117Z,11.27
2023-10-08T05:40:59.397Z,11.11
2023-10-08T05:43:43.135Z,11.25
2023-10-08T05:46:22.531Z,11.27
2023-10-08T05:49:24.964Z,11.20
2023-10-08T05:51:51.369Z,11.24
2023-10-08T05:54:46.111Z,11.25
2023-10-08T05:57:12.661Z,11.19
2023-10-08T05:59:56.455Z,11.14
2023-10-08T06:02:33.886Z,11.09
2023-10-08T06:05:24.796Z,10.87
2023-10-08T06:07:56.909Z,11.05
2023-10-08T06:10:43.468Z,11.10
2023-10-08T06:13:17.162Z,11.16
2023-10-08T06:15:46.007Z,11.15
2023-10-08T06:18:14.359Z,11.07
2023-10-08T06:20:44.311Z,11.24
2023-10-08T06:23:24.095Z,11.18
2023-10-08T06:25:57.696Z,11.21
2023-10-08T06:28:26.410Z,11.06
2023-10-08T06:30:55.052Z,11.16
2023-10-08T06:33:23.437Z,11.14
2023-10-08T06:36:08.437Z,11.12
2023-10-08T06:38:35.642Z,11.06
2023-10-08T06:41:10.025Z,11.03
2023-10-08T06:43:37.782Z,10.99
2023-10-08T06:46:08.522Z,11.04
2023-10-08T06:48:35.966Z,11.08
2023-10-08T06:51:08.955Z,11.14
2023-10-08T06:53:35.816Z,11.19
2023-10-08T06:56:05.566Z,11.07
2023-10-08T06:58:35.467Z,11.15
2023-10-08T07:01:10.017Z,11.21
2023-10-08T07:03:39.426Z,11.21
2023-10-08T07:06:17.850Z,11.29
2023-10-08T07:08:48.229Z,11.30
2023-10-08T07:11:14.766Z,11.27
2023-10-08T07:13:43.616Z,11.31
2023-10-08T07:16:12.636Z,11.38
2023-10-08T07:18:40.181Z,11.36
2023-10-08T07:21:13.604Z,11.41
2023-10-08T07:24:00.422Z,11.46
2023-10-08T07:26:37.688Z,11.46
2023-10-08T07:29:12.762Z,11.54
2023-10-08T07:31:44.143Z,11.46
2023-10-08T07:34:19.828Z,11.72
2023-10-08T07:36:48.331Z,11.75
2023-10-08T07:39:41.736Z,12.02
2023-10-08T07:42:08.923Z,12.20
2023-10-08T07:44:42.461Z,12.38
2023-10-08T07:47:14.516Z,12.53
2023-10-08T07:49:44.700Z,12.72
2023-10-08T07:52:16.581Z,12.83
2023-10-08T07:54:43.303Z,12.99
2023-10-08T07:57:09.862Z,13.14
2023-10-08T07:59:49.864Z,13.28
2023-10-08T08:02:18.903Z,13.43
2023-10-08T08:04:47.798Z,13.51
2023-10-08T08:07:20.134Z,13.64
2023-10-08T08:09:52.038Z,13.82
2023-10-08T08:12:20.428Z,13.90
2023-10-08T08:14:47.153Z,13.86
2023-10-08T08:17:16.682Z,13.90
2023-10-08T08:19:53.957Z,13.99
2023-10-08T08:22:22.588Z,14.10
2023-10-08T08:24:58.306Z,14.09
2023-10-08T08:27:25.641Z,14.10
2023-10-08T08:29:56.834Z,14.10
2023-10-08T08:32:24.608Z,14.15
2023-10-08T08:34:54.217Z,14.25
2023-10-08T08:37:23.465Z,14.16
2023-10-08T08:39:50.246Z,14.44
2023-10-08T08:42:22.500Z,14.33
2023-10-08T08:44:52.196Z,14.41
2023-10-08T08:47:19.951Z,14.42
2023-10-08T08:49:47.401Z,14.42
2023-10-08T08:52:15.515Z,14.46
2023-10-08T08:54:43.305Z,14.63
2023-10-08T08:57:15.063Z,14.64
2023-10-08T08:59:53.979Z,14.69
2023-10-08T09:02:20.478Z,14.88
2023-10-08T09:04:49.269Z,14.86
2023-10-08T09:07:15.964Z,14.96
2023-10-08T09:09:42.546Z,15.22
2023-10-08T09:12:11.538Z,15.35
2023-10-08T09:14:39.353Z,15.47
2023-10-08T09:17:06.446Z,15.42
2023-10-08T09:19:39.755Z,15.52
2023-10-08T09:22:08.463Z,15.53
2023-10-08T09:24:37.887Z,15.74
2023-10-08T09:27:09.690Z,15.77
2023-10-08T09:29:42.491Z,15.62
2023-10-08T09:32:11.258Z,15.76
2023-10-08T09:34:38.072Z,15.58
2023-10-08T09:37:04.518Z,15.67
2023-10-08T09:39:35.056Z,15.78
2023-10-08T09:42:12.742Z,15.76
2023-10-08T09:44:40.621Z,15.61
2023-10-08T09:47:11.232Z,15.87
2023-10-08T09:49:43.227Z,15.91
2023-10-08T09:52:11.350Z,15.93
2023-10-08T09:54:50.016Z,16.26
2023-10-08T09:57:19.740Z,16.31
2023-10-08T09:59:49.621Z,16.30
2023-10-08T10:02:17.873Z,16.07
2023-10-08T10:04:45.473Z,16.25
2023-10-08T10:07:17.852Z,16.41
2023-10-08T10:09:48.495Z,16.68
2023-10-08T10:12:20.192Z,16.26
2023-10-08T10:14:48.362Z,16.62
2023-10-08T10:17:39.857Z,16.69
2023-10-08T10:20:12.148Z,17.01
2023-10-08T10:22:38.740Z,17.10
2023-10-08T10:25:16.143Z,17.23
2023-10-08T10:28:07.652Z,16.97
2023-10-08T10:30:35.330Z,16.90
2023-10-08T10:33:02.291Z,17.09
2023-10-08T10:35:29.170Z,16.92
2023-10-08T10:37:56.723Z,16.90
2023-10-08T10:40:40.161Z,17.05
2023-10-08T10:43:08.048Z,17.30
2023-10-08T10:45:37.777Z,17.66
2023-10-08T10:48:34.026Z,17.41
2023-10-08T10:51:06.374Z,17.93
2023-10-08T10:53:34.607Z,18.23
2023-10-08T10:56:10.366Z,17.91
2023-10-08T10:58:40.228Z,18.00
2023-10-08T11:01:24.491Z,18.27
2023-10-08T11:03:53.006Z,18.23
2023-10-08T11:06:23.748Z,18.27
2023-10-08T11:08:54.619Z,18.55
2023-10-08T11:11:30.579Z,18.70
2023-10-08T11:14:01.208Z,18.22
2023-10-08T11:16:28.122Z,18.10
2023-10-08T11:18:58.972Z,18.44
2023-10-08T11:21:26.685Z,18.44
2023-10-08T11:23:54.915Z,18.28
2023-10-08T11:26:33.317Z,18.21
2023-10-08T11:29:01.883Z,18.60
2023-10-08T11:31:29.254Z,18.66
2023-10-08T11:34:09.473Z,19.17
2023-10-08T11:36:49.844Z,19.27
2023-10-08T11:39:22.716Z,19.47
2023-10-08T11:42:04.149Z,19.30
2023-10-08T11:44:32.157Z,19.67
2023-10-08T11:47:05.740Z,19.90
2023-10-08T11:49:37.447Z,19.28
2023-10-08T11:52:04.843Z,18.80
2023-10-08T11:54:33.235Z,19.10
2023-10-08T11:57:04.034Z,19.79
2023-10-08T11:59:30.863Z,20.06
2023-10-08T12:01:57.590Z,20.27
2023-10-08T12:04:24.268Z,20.41
2023-10-08T12:06:53.245Z,20.93
2023-10-08T12:09:22.936Z,20.83
2023-10-08T12:11:49.904Z,20.45
2023-10-08T12:14:16.643Z,20.81
2023-10-08T12:16:43.595Z,20.77
2023-10-08T12:19:21.536Z,20.24
2023-10-08T12:21:48.547Z,19.80
2023-10-08T12:24:15.262Z,19.71
2023-10-08T12:26:48.473Z,19.39
2023-10-08T12:29:15.949Z,18.87
2023-10-08T12:31:42.391Z,18.70
2023-10-08T12:34:12.706Z,18.16
2023-10-08T12:36:39.491Z,17.80
2023-10-08T12:39:15.528Z,17.68
2023-10-08T12:41:44.979Z,17.58
2023-10-08T12:44:13.359Z,17.45
2023-10-08T12:46:40.475Z,17.21
2023-10-08T12:49:08.286Z,17.08
2023-10-08T12:51:34.942Z,16.93
2023-10-08T12:54:07.797Z,16.76
2023-10-08T12:56:49.957Z,16.66
2023-10-08T12:59:24.896Z,16.88
2023-10-08T13:01:58.009Z,16.91
2023-10-08T13:04:29.680Z,16.77
2023-10-08T13:06:58.385Z,16.68
2023-10-08T13:09:25.734Z,16.45
2023-10-08T13:11:52.441Z,16.43
2023-10-08T13:14:18.847Z,16.39
2023-10-08T13:16:46.446Z,16.45
2023-10-08T13:19:13.044Z,16.56
2023-10-08T13:21:39.509Z,16.67
2023-10-08T13:24:10.560Z,16.75
2023-10-08T13:26:39.862Z,16.73
2023-10-08T13:29:07.080Z,16.65
2023-10-08T13:31:37.554Z,16.57
2023-10-08T13:34:09.516Z,16.62
2023-10-08T13:36:39.342Z,16.66
2023-10-08T13:39:10.560Z,16.64
2023-10-08T13:41:42.767Z,16.61
2023-10-08T13:44:09.497Z,16.48
2023-10-08T13:46:37.416Z,16.45
2023-10-08T13:49:06.892Z,16.37
2023-10-08T13:51:36.052Z,16.36
2023-10-08T13:54:04.246Z,16.35
2023-10-08T13:56:32.085Z,16.24
2023-10-08T13:59:07.237Z,16.34
2023-10-08T14:01:35.748Z,16.37
2023-10-08T14:04:07.161Z,16.64
2023-10-08T14:06:35.654Z,16.59
2023-10-08T14:09:08.270Z,16.69
2023-10-08T14:11:34.748Z,16.64
2023-10-08T14:14:08.281Z,16.53
2023-10-08T14:16:36.256Z,16.43
2023-10-08T14:19:05.820Z,16.32
2023-10-08T14:21:37.750Z,16.36
2023-10-08T14:24:04.879Z,16.25
2023-10-08T14:26:37.858Z,16.17
2023-10-08T14:29:15.976Z,16.08
2023-10-08T14:31:45.534Z,16.00
2023-10-08T14:34:17.895Z,15.90
2023-10-08T14:37:04.303Z,15.94
2023-10-08T14:39:50.280Z,15.88
2023-10-08T14:42:36.120Z,15.84
2023-10-08T14:45:03.460Z,15.89
2023-10-08T14:47:30.775Z,15.90
2023-10-08T14:49:57.743Z,15.83
2023-10-08T14:52:24.138Z,15.88
2023-10-08T14:54:53.041Z,15.84
2023-10-08T14:57:19.814Z,15.75
2023-10-08T14:59:46.452Z,15.79
2023-10-08T15:02:12.888Z,15.64
2023-10-08T15:04:42.259Z,15.67
2023-10-08T15:07:12.405Z,15.61
2023-10-08T15:09:42.610Z,15.53
2023-10-08T15:12:09.962Z,15.51
2023-10-08T15:14:39.132Z,15.55
2023-10-08T15:17:06.257Z,15.53
2023-10-08T15:19:33.187Z,15.48
2023-10-08T15:21:59.680Z,15.45
2023-10-08T15:24:26.103Z,15.35
2023-10-08T15:26:53.785Z,15.44
2023-10-08T15:29:26.918Z,15.45
2023-10-08T15:31:55.624Z,15.31
2023-10-08T15:34:35.927Z,15.38
2023-10-08T15:37:05.012Z,15.35
2023-10-08T15:39:31.491Z,15.37
2023-10-08T15:41:57.943Z,15.34
2023-10-08T15:44:24.513Z,15.35
2023-10-08T15:46:52.215Z,15.32
2023-10-08T15:49:20.491Z,15.16
2023-10-08T15:51:50.180Z,15.26
2023-10-08T15:54:21.890Z,15.15
2023-10-08T15:56:48.740Z,15.06
2023-10-08T15:59:15.391Z,15.04
2023-10-08T16:01:44.443Z,15.04
2023-10-08T16:04:11.292Z,15.00
2023-10-08T16:06:38.026Z,14.93
2023-10-08T16:09:06.411Z,14.89
2023-10-08T16:11:33.004Z,14.69
2023-10-08T16:13:59.411Z,14.78
2023-10-08T16:16:25.846Z,14.75
2023-10-08T16:18:52.690Z,14.69
2023-10-08T16:21:21.932Z,14.64
2023-10-08T16:23:48.585Z,14.59
2023-10-08T16:26:15.136Z,14.60
2023-10-08T16:28:41.569Z,14.54
2023-10-08T16:31:08.123Z,14.42
2023-10-08T16:33:34.703Z,14.52
2023-10-08T16:36:04.614Z,14.50
2023-10-08T16:38:31.205Z,14.37
2023-10-08T16:40:57.588Z,14.50
2023-10-08T16:43:24.050Z,14.40
2023-10-08T16:45:50.713Z,14.37
2023-10-08T16:48:17.288Z,14.24
2023-10-08T16:50:44.465Z,14.33
2023-10-08T16:53:11.145Z,14.28
2023-10-08T16:55:37.589Z,14.25
2023-10-08T16:58:04.104Z,14.12
2023-10-08T17:00:30.558Z,14.07
2023-10-08T17:02:58.137Z,13.99
2023-10-08T17:05:25.003Z,13.91
2023-10-08T17:07:53.377Z,13.80
2023-10-08T17:10:21.708Z,13.90
2023-10-08T17:12:54.991Z,13.88
2023-10-08T17:15:22.868Z,13.87
2023-10-08T17:17:49.317Z,13.90
2023-10-08T17:20:18.852Z,13.76
2023-10-08T17:22:46.704Z,13.85
2023-10-08T17:25:13.941Z,13.87
2023-10-08T17:27:46.382Z,13.94
2023-10-08T17:30:20.571Z,13.95
2023-10-08T17:32:49.154Z,14.03
2023-10-08T17:35:20.152Z,14.01
2023-10-08T17:37:47.659Z,14.04
2023-10-08T17:40:14.611Z,14.00
2023-10-08T17:42:42.525Z,13.96
2023-10-08T17:45:10.137Z,14.06
2023-10-08T17:47:36.885Z,14.11
2023-10-08T17:50:03.999Z,14.18
2023-10-08T17:52:30.395Z,14.24
2023-10-08T17:54:59.536Z,14.32
2023-10-08T17:57:26.859Z,14.32
2023-10-08T17:59:53.963Z,14.32
2023-10-08T18:02:21.791Z,14.41
2023-10-08T18:04:48.411Z,14.43
2023-10-08T18:07:15.737Z,14.35
2023-10-08T18:09:44.048Z,14.53
2023-10-08T18:12:11.559Z,14.57
2023-10-08T18:14:38.209Z,14.57
2023-10-08T18:17:04.793Z,14.40
2023-10-08T18:19:31.381Z,14.41
2023-10-08T18:21:59.641Z,14.55
2023-10-08T18:24:28.929Z,14.57
2023-10-08T18:26:56.060Z,14.59
2023-10-08T18:29:23.079Z,14.56
2023-10-08T18:31:50.602Z,14.56
2023-10-08T18:34:18.432Z,14.54
2023-10-08T18:36:44.994Z,14.54
2023-10-08T18:39:14.808Z,14.57
2023-10-08T18:41:44.016Z,14.61
2023-10-08T18:44:11.966Z,14.61
2023-10-08T18:46:38.656Z,14.59
2023-10-08T18:49:08.812Z,14.59
2023-10-08T18:51:35.460Z,14.65
2023-10-08T18:54:02.229Z,14.64
2023-10-08T18:56:28.814Z,14.63
2023-10-08T18:58:55.449Z,14.55
2023-10-08T19:01:27.020Z,14.57
2023-10-08T19:03:54.498Z,14.50
2023-10-08T19:06:21.252Z,14.39
2023-10-08T19:08:48.793Z,14.22
2023-10-08T19:11:16.531Z,14.26
2023-10-08T19:13:43.003Z,14.10
2023-10-08T19:16:11.909Z,13.98
2023-10-08T19:18:42.420Z,14.08
2023-10-08T19:21:15.634Z,13.92
2023-10-08T19:23:42.222Z,14.06
2023-10-08T19:26:08.615Z,14.07
2023-10-08T19:28:35.012Z,14.11
2023-10-08T19:31:04.066Z,14.17
2023-10-08T19:33:32.039Z,14.20
2023-10-08T19:36:00.009Z,14.25
2023-10-08T19:38:26.833Z,14.27
2023-10-08T19:40:54.151Z,14.18
2023-10-08T19:43:20.746Z,14.24
2023-10-08T19:45:48.981Z,14.33
2023-10-08T19:48:16.836Z,14.35
2023-10-08T19:50:44.215Z,14.25
2023-10-08T19:53:12.404Z,13.87
2023-10-08T19:55:54.151Z,13.81
2023-10-08T19:58:21.964Z,13.64
2023-10-08T20:00:51.331Z,13.52
2023-10-08T20:03:21.245Z,13.41
2023-10-08T20:05:48.504Z,13.26
2023-10-08T20:08:16.708Z,13.13
2023-10-08T20:10:44.947Z,13.12
2023-10-08T20:13:12.564Z,13.05
2023-10-08T20:15:39.569Z,13.01
2023-10-08T20:18:09.085Z,13.03
2023-10-08T20:20:37.180Z,13.00
2023-10-08T20:23:06.416Z,12.98
2023-10-08T20:25:37.891Z,12.83
2023-10-08T20:28:05.452Z,12.94
2023-10-08T20:30:34.953Z,12.89
2023-10-08T20:33:01.570Z,12.89
2023-10-08T20:35:29.969Z,12.83
2023-10-08T20:37:57.552Z,12.83
2023-10-08T20:40:30.099Z,12.83
2023-10-08T20:42:57.153Z,12.84
2023-10-08T20:45:27.827Z,12.87
2023-10-08T20:47:56.166Z,12.84
2023-10-08T20:50:32.764Z,12.89
2023-10-08T20:53:02.108Z,12.87
2023-10-08T20:55:34.324Z,12.88
2023-10-08T20:58:01.315Z,12.67
2023-10-08T21:00:32.110Z,12.69
2023-10-08T21:03:01.983Z,12.73
2023-10-08T21:05:29.394Z,12.85
2023-10-08T21:07:55.886Z,12.85
2023-10-08T21:10:25.861Z,12.81
2023-10-08T21:12:57.524Z,12.86
2023-10-08T21:15:25.513Z,12.88
2023-10-08T21:17:54.092Z,12.77
2023-10-08T21:20:25.549Z,12.88
2023-10-08T21:22:53.122Z,12.87
2023-10-08T21:25:21.436Z,12.89
2023-10-08T21:28:01.774Z,12.84
2023-10-08T21:30:28.888Z,12.82
2023-10-08T21:32:56.607Z,12.83
2023-10-08T21:35:23.831Z,12.72
2023-10-08T21:37:51.741Z,12.80
2023-10-08T21:40:19.299Z,12.83
2023-10-08T21:42:52.879Z,12.81
2023-10-08T21:45:20.280Z,12.81
2023-10-08T21:47:48.314Z,12.87
2023-10-08T21:50:17.845Z,12.71
2023-10-08T21:52:46.868Z,12.88
2023-10-08T21:55:18.253Z,12.91
2023-10-08T21:57:46.326Z,12.89
2023-10-08T22:00:26.440Z,12.73
2023-10-08T22:03:00.365Z,12.90
2023-10-08T22:05:32.979Z,12.90
2023-10-08T22:08:04.624Z,12.74
2023-10-08T22:10:34.489Z,12.80
2023-10-08T22:13:04.967Z,12.77
2023-10-08T22:15:31.605Z,12.74
2023-10-08T22:18:03.099Z,12.71
2023-10-08T22:20:39.349Z,12.69
2023-10-08T22:23:16.071Z,12.66
2023-10-08T22:25:50.644Z,12.70
2023-10-08T22:28:20.648Z,12.63
2023-10-08T22:30:56.098Z,12.58
2023-10-08T22:33:34.748Z,12.62
2023-10-08T22:36:08.844Z,12.39
2023-10-08T22:38:36.013Z,12.67
2023-10-08T22:41:02.430Z,12.70
2023-10-08T22:43:37.998Z,12.68
2023-10-08T22:46:07.563Z,12.64
2023-10-08T22:48:37.452Z,12.66
2023-10-08T22:51:10.802Z,12.69
2023-10-08T22:53:38.870Z,12.74
2023-10-08T22:56:07.354Z,12.72
2023-10-08T22:58:35.262Z,12.73
2023-10-08T23:01:19.238Z,12.73
2023-10-08T23:03:53.670Z,12.61
2023-10-08T23:06:22.955Z,12.71
2023-10-08T23:08:50.466Z,12.72
2023-10-08T23:11:16.979Z,12.69
2023-10-08T23:13:44.150Z,12.64
2023-10-08T23:16:15.638Z,12.56
2023-10-08T23:18:44.042Z,12.65
2023-10-08T23:21:12.683Z,12.66
2023-10-08T23:23:40.048Z,12.69
2023-10-08T23:26:08.048Z,12.66
2023-10-08T23:28:35.328Z,12.62
2023-10-08T23:31:03.972Z,12.65
2023-10-08T23:33:35.267Z,12.63
2023-10-08T23:36:06.232Z,12.67
2023-10-08T23:38:33.514Z,12.70
2023-10-08T23:41:12.756Z,12.62
2023-10-08T23:43:42.146Z,12.76
2023-10-08T23:46:12.844Z,12.74
2023-10-08T23:48:54.588Z,12.70
2023-10-08T23:53:56.373Z,12.70
2023-10-08T23:56:29.468Z,12.74
2023-10-08T23:59:00.514Z,12.75
